sensor_id;sensor_type;location;lat;lon;timestamp;P1;durP1;ratioP1;P2;durP2;ratioP2
79526;SDS011;68974;47.754;-3.364;2023-11-19T00:00:05;26.92;;;5.90;;
79526;SDS011;68974;47.754;-3.364;2023-11-19T00:02:31;30.13;;;5.05;;
79526;SDS011;68974;47.754;-3.364;2023-11-19T00:04:57;34.25;;;5.72;;
79526;SDS011;68974;47.754;-3.364;2023-11-19T00:07:23;30.45;;;4.97;;
79526;SDS011;68974;47.754;-3.364;2023-11-19T00:09:48;45.13;;;6.15;;
79526;SDS011;68974;47.754;-3.364;2023-11-19T00:12:14;31.58;;;5.35;;
79526;SDS011;68974;47.754;-3.364;2023-11-19T00:14:39;32.55;;;5.93;;
79526;SDS011;68974;47.754;-3.364;2023-11-19T00:17:06;24.45;;;6.18;;
79526;SDS011;68974;47.754;-3.364;2023-11-19T00:19:31;40.55;;;5.38;;
79526;SDS011;68974;47.754;-3.364;2023-11-19T00:21:56;40.97;;;5.10;;
79526;SDS011;68974;47.754;-3.364;2023-11-19T00:24:22;43.63;;;5.60;;
79526;SDS011;68974;47.754;-3.364;2023-11-19T00:26:47;30.67;;;6.32;;
79526;SDS011;68974;47.754;-3.364;2023-11-19T00:29:12;32.10;;;5.43;;
79526;SDS011;68974;47.754;-3.364;2023-11-19T00:31:39;30.50;;;4.50;;
79526;SDS011;68974;47.754;-3.364;2023-11-19T00:34:04;28.40;;;5.93;;
79526;SDS011;68974;47.754;-3.364;2023-11-19T00:36:31;31.88;;;4.68;;
79526;SDS011;68974;47.754;-3.364;2023-11-19T00:38:56;33.03;;;5.35;;
79526;SDS011;68974;47.754;-3.364;2023-11-19T00:41:22;32.37;;;5.33;;
79526;SDS011;68974;47.754;-3.364;2023-11-19T00:43:47;42.50;;;5.97;;
79526;SDS011;68974;47.754;-3.364;2023-11-19T00:46:14;38.08;;;8.00;;
79526;SDS011;68974;47.754;-3.364;2023-11-19T00:48:39;40.78;;;5.57;;
79526;SDS011;68974;47.754;-3.364;2023-11-19T00:51:05;37.05;;;5.28;;
79526;SDS011;68974;47.754;-3.364;2023-11-19T00:53:31;33.85;;;5.57;;
79526;SDS011;68974;47.754;-3.364;2023-11-19T00:56:00;31.05;;;5.13;;
79526;SDS011;68974;47.754;-3.364;2023-11-19T00:58:25;31.80;;;5.85;;
79526;SDS011;68974;47.754;-3.364;2023-11-19T01:00:51;32.92;;;4.68;;
79526;SDS011;68974;47.754;-3.364;2023-11-19T01:03:16;39.38;;;5.85;;
79526;SDS011;68974;47.754;-3.364;2023-11-19T01:05:42;44.35;;;6.22;;
79526;SDS011;68974;47.754;-3.364;2023-11-19T01:08:07;30.58;;;4.70;;
79526;SDS011;68974;47.754;-3.364;2023-11-19T01:10:33;39.40;;;5.55;;
79526;SDS011;68974;47.754;-3.364;2023-11-19T01:12:59;35.78;;;6.10;;
79526;SDS011;68974;47.754;-3.364;2023-11-19T01:15:24;29.42;;;4.97;;
79526;SDS011;68974;47.754;-3.364;2023-11-19T01:17:50;34.10;;;5.45;;
79526;SDS011;68974;47.754;-3.364;2023-11-19T01:20:15;27.05;;;4.93;;
79526;SDS011;68974;47.754;-3.364;2023-11-19T01:22:41;29.90;;;4.65;;
79526;SDS011;68974;47.754;-3.364;2023-11-19T01:25:06;41.05;;;5.95;;
79526;SDS011;68974;47.754;-3.364;2023-11-19T01:27:32;35.10;;;5.90;;
79526;SDS011;68974;47.754;-3.364;2023-11-19T01:30:00;42.25;;;5.40;;
79526;SDS011;68974;47.754;-3.364;2023-11-19T01:32:29;40.15;;;5.90;;
79526;SDS011;68974;47.754;-3.364;2023-11-19T01:34:54;41.78;;;5.28;;
79526;SDS011;68974;47.754;-3.364;2023-11-19T01:37:20;28.17;;;5.30;;
79526;SDS011;68974;47.754;-3.364;2023-11-19T01:39:45;39.67;;;5.43;;
79526;SDS011;68974;47.754;-3.364;2023-11-19T01:42:11;41.15;;;6.20;;
79526;SDS011;68974;47.754;-3.364;2023-11-19T01:44:39;41.30;;;6.50;;
79526;SDS011;68974;47.754;-3.364;2023-11-19T01:47:05;31.80;;;4.53;;
79526;SDS011;68974;47.754;-3.364;2023-11-19T01:49:31;39.15;;;7.95;;
79526;SDS011;68974;47.754;-3.364;2023-11-19T01:51:58;40.67;;;5.32;;
79526;SDS011;68974;47.754;-3.364;2023-11-19T01:54:24;34.92;;;6.25;;
79526;SDS011;68974;47.754;-3.364;2023-11-19T01:56:50;37.58;;;6.15;;
79526;SDS011;68974;47.754;-3.364;2023-11-19T01:59:17;41.47;;;5.82;;
79526;SDS011;68974;47.754;-3.364;2023-11-19T02:01:43;31.33;;;4.88;;
79526;SDS011;68974;47.754;-3.364;2023-11-19T02:04:09;31.73;;;5.37;;
79526;SDS011;68974;47.754;-3.364;2023-11-19T02:06:37;38.97;;;5.88;;
79526;SDS011;68974;47.754;-3.364;2023-11-19T02:09:08;36.25;;;5.55;;
79526;SDS011;68974;47.754;-3.364;2023-11-19T02:11:34;37.97;;;6.82;;
79526;SDS011;68974;47.754;-3.364;2023-11-19T02:14:00;37.58;;;6.63;;
79526;SDS011;68974;47.754;-3.364;2023-11-19T02:16:26;33.97;;;6.80;;
79526;SDS011;68974;47.754;-3.364;2023-11-19T02:18:53;39.08;;;6.88;;
79526;SDS011;68974;47.754;-3.364;2023-11-19T02:21:18;37.43;;;5.90;;
79526;SDS011;68974;47.754;-3.364;2023-11-19T02:23:43;35.15;;;5.72;;
79526;SDS011;68974;47.754;-3.364;2023-11-19T02:29:01;31.42;;;5.55;;
79526;SDS011;68974;47.754;-3.364;2023-11-19T02:31:28;33.67;;;6.63;;
79526;SDS011;68974;47.754;-3.364;2023-11-19T02:33:53;44.70;;;7.85;;
79526;SDS011;68974;47.754;-3.364;2023-11-19T02:36:19;46.67;;;5.80;;
79526;SDS011;68974;47.754;-3.364;2023-11-19T02:38:44;40.23;;;6.17;;
79526;SDS011;68974;47.754;-3.364;2023-11-19T02:41:10;45.38;;;5.88;;
79526;SDS011;68974;47.754;-3.364;2023-11-19T02:43:36;44.33;;;5.73;;
79526;SDS011;68974;47.754;-3.364;2023-11-19T02:46:04;34.72;;;5.90;;
79526;SDS011;68974;47.754;-3.364;2023-11-19T02:48:33;39.03;;;5.68;;
79526;SDS011;68974;47.754;-3.364;2023-11-19T02:51:00;37.60;;;6.97;;
79526;SDS011;68974;47.754;-3.364;2023-11-19T02:53:28;44.30;;;8.43;;
79526;SDS011;68974;47.754;-3.364;2023-11-19T02:55:54;50.35;;;5.82;;
79526;SDS011;68974;47.754;-3.364;2023-11-19T02:58:26;33.70;;;6.30;;
79526;SDS011;68974;47.754;-3.364;2023-11-19T03:03:34;32.80;;;6.38;;
79526;SDS011;68974;47.754;-3.364;2023-11-19T03:06:06;43.90;;;7.75;;
79526;SDS011;68974;47.754;-3.364;2023-11-19T03:08:35;40.13;;;7.80;;
79526;SDS011;68974;47.754;-3.364;2023-11-19T03:11:01;47.35;;;6.47;;
79526;SDS011;68974;47.754;-3.364;2023-11-19T03:13:27;40.78;;;6.10;;
79526;SDS011;68974;47.754;-3.364;2023-11-19T03:15:52;39.85;;;5.28;;
79526;SDS011;68974;47.754;-3.364;2023-11-19T03:18:19;39.67;;;5.60;;
79526;SDS011;68974;47.754;-3.364;2023-11-19T03:20:46;40.70;;;5.45;;
79526;SDS011;68974;47.754;-3.364;2023-11-19T03:23:12;30.70;;;5.47;;
79526;SDS011;68974;47.754;-3.364;2023-11-19T03:25:37;38.95;;;6.60;;
79526;SDS011;68974;47.754;-3.364;2023-11-19T03:28:03;39.22;;;6.10;;
79526;SDS011;68974;47.754;-3.364;2023-11-19T03:30:29;33.70;;;4.80;;
79526;SDS011;68974;47.754;-3.364;2023-11-19T03:32:56;37.10;;;4.93;;
79526;SDS011;68974;47.754;-3.364;2023-11-19T03:35:22;29.55;;;5.47;;
79526;SDS011;68974;47.754;-3.364;2023-11-19T03:37:48;28.90;;;4.40;;
79526;SDS011;68974;47.754;-3.364;2023-11-19T03:40:13;40.72;;;5.43;;
79526;SDS011;68974;47.754;-3.364;2023-11-19T03:42:39;33.35;;;5.70;;
79526;SDS011;68974;47.754;-3.364;2023-11-19T03:45:08;35.53;;;4.95;;
79526;SDS011;68974;47.754;-3.364;2023-11-19T03:47:36;25.83;;;5.47;;
79526;SDS011;68974;47.754;-3.364;2023-11-19T03:50:02;39.88;;;5.43;;
79526;SDS011;68974;47.754;-3.364;2023-11-19T03:52:28;32.95;;;4.95;;
79526;SDS011;68974;47.754;-3.364;2023-11-19T03:54:54;33.70;;;4.18;;
79526;SDS011;68974;47.754;-3.364;2023-11-19T03:57:20;33.03;;;5.03;;
79526;SDS011;68974;47.754;-3.364;2023-11-19T03:59:46;28.30;;;4.40;;
79526;SDS011;68974;47.754;-3.364;2023-11-19T04:02:11;26.73;;;4.30;;
79526;SDS011;68974;47.754;-3.364;2023-11-19T04:04:37;36.70;;;4.30;;
79526;SDS011;68974;47.754;-3.364;2023-11-19T04:07:04;28.90;;;5.60;;
79526;SDS011;68974;47.754;-3.364;2023-11-19T04:09:30;35.17;;;6.22;;
79526;SDS011;68974;47.754;-3.364;2023-11-19T04:11:56;30.13;;;6.07;;
79526;SDS011;68974;47.754;-3.364;2023-11-19T04:14:22;34.58;;;6.60;;
79526;SDS011;68974;47.754;-3.364;2023-11-19T04:16:48;28.77;;;4.68;;
79526;SDS011;68974;47.754;-3.364;2023-11-19T04:19:13;27.70;;;4.67;;
79526;SDS011;68974;47.754;-3.364;2023-11-19T04:21:42;30.07;;;5.30;;
79526;SDS011;68974;47.754;-3.364;2023-11-19T04:24:10;27.38;;;4.88;;
79526;SDS011;68974;47.754;-3.364;2023-11-19T04:26:42;35.10;;;4.60;;
79526;SDS011;68974;47.754;-3.364;2023-11-19T04:29:11;34.60;;;4.72;;
79526;SDS011;68974;47.754;-3.364;2023-11-19T04:31:38;32.50;;;6.28;;
79526;SDS011;68974;47.754;-3.364;2023-11-19T04:34:04;28.48;;;5.47;;
79526;SDS011;68974;47.754;-3.364;2023-11-19T04:36:30;36.25;;;6.45;;
79526;SDS011;68974;47.754;-3.364;2023-11-19T04:38:55;32.55;;;6.68;;
79526;SDS011;68974;47.754;-3.364;2023-11-19T04:41:20;41.95;;;4.85;;
79526;SDS011;68974;47.754;-3.364;2023-11-19T04:43:46;40.85;;;5.25;;
79526;SDS011;68974;47.754;-3.364;2023-11-19T04:46:11;34.33;;;5.15;;
79526;SDS011;68974;47.754;-3.364;2023-11-19T04:48:36;24.70;;;5.20;;
79526;SDS011;68974;47.754;-3.364;2023-11-19T04:51:04;32.00;;;6.60;;
79526;SDS011;68974;47.754;-3.364;2023-11-19T04:53:30;34.55;;;5.28;;
79526;SDS011;68974;47.754;-3.364;2023-11-19T04:55:55;26.02;;;4.35;;
79526;SDS011;68974;47.754;-3.364;2023-11-19T04:58:21;45.00;;;6.47;;
79526;SDS011;68974;47.754;-3.364;2023-11-19T05:00:46;24.15;;;4.30;;
79526;SDS011;68974;47.754;-3.364;2023-11-19T05:03:11;33.13;;;5.43;;
79526;SDS011;68974;47.754;-3.364;2023-11-19T05:05:37;37.90;;;4.97;;
79526;SDS011;68974;47.754;-3.364;2023-11-19T05:08:02;31.83;;;5.50;;
79526;SDS011;68974;47.754;-3.364;2023-11-19T05:10:28;27.30;;;4.60;;
79526;SDS011;68974;47.754;-3.364;2023-11-19T05:12:53;30.27;;;5.05;;
79526;SDS011;68974;47.754;-3.364;2023-11-19T05:15:21;33.63;;;4.88;;
79526;SDS011;68974;47.754;-3.364;2023-11-19T05:17:46;37.80;;;5.78;;
79526;SDS011;68974;47.754;-3.364;2023-11-19T05:20:11;33.60;;;5.20;;
79526;SDS011;68974;47.754;-3.364;2023-11-19T05:22:41;24.33;;;3.83;;
79526;SDS011;68974;47.754;-3.364;2023-11-19T05:25:07;27.40;;;4.22;;
79526;SDS011;68974;47.754;-3.364;2023-11-19T05:27:33;39.67;;;5.30;;
79526;SDS011;68974;47.754;-3.364;2023-11-19T05:30:00;39.80;;;5.25;;
79526;SDS011;68974;47.754;-3.364;2023-11-19T05:32:25;29.30;;;4.53;;
79526;SDS011;68974;47.754;-3.364;2023-11-19T05:34:50;30.00;;;4.47;;
79526;SDS011;68974;47.754;-3.364;2023-11-19T05:37:16;24.42;;;4.70;;
79526;SDS011;68974;47.754;-3.364;2023-11-19T05:39:41;35.17;;;5.35;;
79526;SDS011;68974;47.754;-3.364;2023-11-19T05:42:07;35.17;;;5.55;;
79526;SDS011;68974;47.754;-3.364;2023-11-19T05:44:32;35.35;;;6.72;;
79526;SDS011;68974;47.754;-3.364;2023-11-19T05:46:58;31.85;;;5.40;;
79526;SDS011;68974;47.754;-3.364;2023-11-19T05:49:23;34.30;;;4.82;;
79526;SDS011;68974;47.754;-3.364;2023-11-19T05:51:48;31.45;;;5.65;;
79526;SDS011;68974;47.754;-3.364;2023-11-19T05:54:14;29.88;;;5.90;;
79526;SDS011;68974;47.754;-3.364;2023-11-19T05:56:39;27.45;;;4.18;;
79526;SDS011;68974;47.754;-3.364;2023-11-19T05:59:05;29.65;;;4.57;;
79526;SDS011;68974;47.754;-3.364;2023-11-19T06:01:32;34.40;;;5.25;;
79526;SDS011;68974;47.754;-3.364;2023-11-19T06:03:59;30.25;;;4.60;;
79526;SDS011;68974;47.754;-3.364;2023-11-19T06:06:25;29.15;;;4.28;;
79526;SDS011;68974;47.754;-3.364;2023-11-19T06:08:51;32.47;;;4.30;;
79526;SDS011;68974;47.754;-3.364;2023-11-19T06:11:17;26.08;;;4.40;;
79526;SDS011;68974;47.754;-3.364;2023-11-19T06:13:45;26.38;;;4.05;;
79526;SDS011;68974;47.754;-3.364;2023-11-19T06:16:12;28.15;;;4.78;;
79526;SDS011;68974;47.754;-3.364;2023-11-19T06:18:38;31.20;;;5.15;;
79526;SDS011;68974;47.754;-3.364;2023-11-19T06:21:04;27.02;;;4.72;;
79526;SDS011;68974;47.754;-3.364;2023-11-19T06:23:29;31.80;;;6.50;;
79526;SDS011;68974;47.754;-3.364;2023-11-19T06:25:55;35.05;;;4.53;;
79526;SDS011;68974;47.754;-3.364;2023-11-19T06:28:20;32.58;;;5.05;;
79526;SDS011;68974;47.754;-3.364;2023-11-19T06:30:46;33.97;;;5.43;;
79526;SDS011;68974;47.754;-3.364;2023-11-19T06:33:14;32.88;;;5.15;;
79526;SDS011;68974;47.754;-3.364;2023-11-19T06:35:40;28.42;;;4.03;;
79526;SDS011;68974;47.754;-3.364;2023-11-19T06:38:05;25.05;;;3.97;;
79526;SDS011;68974;47.754;-3.364;2023-11-19T06:40:31;32.28;;;4.97;;
79526;SDS011;68974;47.754;-3.364;2023-11-19T06:42:57;27.77;;;3.67;;
79526;SDS011;68974;47.754;-3.364;2023-11-19T06:45:22;34.72;;;4.43;;
79526;SDS011;68974;47.754;-3.364;2023-11-19T06:47:48;34.30;;;3.80;;
79526;SDS011;68974;47.754;-3.364;2023-11-19T06:50:13;23.50;;;4.67;;
79526;SDS011;68974;47.754;-3.364;2023-11-19T06:52:40;28.65;;;4.35;;
79526;SDS011;68974;47.754;-3.364;2023-11-19T06:55:05;27.40;;;3.70;;
79526;SDS011;68974;47.754;-3.364;2023-11-19T06:57:31;30.58;;;4.03;;
79526;SDS011;68974;47.754;-3.364;2023-11-19T06:59:57;32.22;;;6.22;;
79526;SDS011;68974;47.754;-3.364;2023-11-19T07:02:23;25.65;;;3.25;;
79526;SDS011;68974;47.754;-3.364;2023-11-19T07:04:49;34.58;;;5.53;;
79526;SDS011;68974;47.754;-3.364;2023-11-19T07:07:14;25.65;;;3.97;;
79526;SDS011;68974;47.754;-3.364;2023-11-19T07:09:40;32.72;;;4.57;;
79526;SDS011;68974;47.754;-3.364;2023-11-19T07:12:06;23.15;;;4.05;;
79526;SDS011;68974;47.754;-3.364;2023-11-19T07:14:31;30.85;;;5.10;;
79526;SDS011;68974;47.754;-3.364;2023-11-19T07:16:57;26.15;;;5.45;;
79526;SDS011;68974;47.754;-3.364;2023-11-19T07:19:22;26.65;;;3.78;;
79526;SDS011;68974;47.754;-3.364;2023-11-19T07:21:48;36.75;;;4.88;;
79526;SDS011;68974;47.754;-3.364;2023-11-19T07:24:14;29.92;;;3.78;;
79526;SDS011;68974;47.754;-3.364;2023-11-19T07:26:43;30.25;;;4.88;;
79526;SDS011;68974;47.754;-3.364;2023-11-19T07:29:09;33.95;;;4.35;;
79526;SDS011;68974;47.754;-3.364;2023-11-19T07:31:35;31.48;;;4.38;;
79526;SDS011;68974;47.754;-3.364;2023-11-19T07:34:01;22.73;;;4.38;;
79526;SDS011;68974;47.754;-3.364;2023-11-19T07:36:26;28.52;;;5.22;;
79526;SDS011;68974;47.754;-3.364;2023-11-19T07:38:51;23.90;;;4.57;;
79526;SDS011;68974;47.754;-3.364;2023-11-19T07:41:17;25.33;;;3.53;;
79526;SDS011;68974;47.754;-3.364;2023-11-19T07:43:45;26.93;;;4.47;;
79526;SDS011;68974;47.754;-3.364;2023-11-19T07:46:11;34.95;;;4.38;;
79526;SDS011;68974;47.754;-3.364;2023-11-19T07:48:38;23.90;;;4.40;;
79526;SDS011;68974;47.754;-3.364;2023-11-19T07:51:04;20.13;;;3.47;;
79526;SDS011;68974;47.754;-3.364;2023-11-19T07:53:29;28.42;;;4.45;;
79526;SDS011;68974;47.754;-3.364;2023-11-19T07:55:55;28.00;;;5.07;;
79526;SDS011;68974;47.754;-3.364;2023-11-19T07:58:20;26.50;;;5.10;;
79526;SDS011;68974;47.754;-3.364;2023-11-19T08:00:46;34.20;;;4.65;;
79526;SDS011;68974;47.754;-3.364;2023-11-19T08:03:11;28.80;;;4.50;;
79526;SDS011;68974;47.754;-3.364;2023-11-19T08:05:37;26.23;;;3.95;;
79526;SDS011;68974;47.754;-3.364;2023-11-19T08:08:02;36.58;;;6.13;;
79526;SDS011;68974;47.754;-3.364;2023-11-19T08:10:27;32.25;;;4.15;;
79526;SDS011;68974;47.754;-3.364;2023-11-19T08:12:53;29.50;;;4.80;;
79526;SDS011;68974;47.754;-3.364;2023-11-19T08:15:19;23.20;;;4.35;;
79526;SDS011;68974;47.754;-3.364;2023-11-19T08:17:44;26.77;;;5.38;;
79526;SDS011;68974;47.754;-3.364;2023-11-19T08:20:10;21.27;;;3.53;;
79526;SDS011;68974;47.754;-3.364;2023-11-19T08:22:36;26.92;;;4.70;;
79526;SDS011;68974;47.754;-3.364;2023-11-19T08:25:03;24.23;;;5.22;;
79526;SDS011;68974;47.754;-3.364;2023-11-19T08:27:32;24.15;;;4.15;;
79526;SDS011;68974;47.754;-3.364;2023-11-19T08:29:57;25.13;;;3.47;;
79526;SDS011;68974;47.754;-3.364;2023-11-19T08:32:26;30.00;;;5.18;;
79526;SDS011;68974;47.754;-3.364;2023-11-19T08:34:51;27.08;;;4.18;;
79526;SDS011;68974;47.754;-3.364;2023-11-19T08:37:17;28.35;;;4.95;;
79526;SDS011;68974;47.754;-3.364;2023-11-19T08:39:48;30.20;;;4.70;;
79526;SDS011;68974;47.754;-3.364;2023-11-19T08:42:15;29.70;;;4.93;;
79526;SDS011;68974;47.754;-3.364;2023-11-19T08:44:41;26.27;;;4.05;;
79526;SDS011;68974;47.754;-3.364;2023-11-19T08:47:12;27.58;;;4.55;;
79526;SDS011;68974;47.754;-3.364;2023-11-19T08:49:38;26.83;;;4.70;;
79526;SDS011;68974;47.754;-3.364;2023-11-19T08:52:04;37.10;;;4.82;;
79526;SDS011;68974;47.754;-3.364;2023-11-19T08:54:32;22.67;;;4.40;;
79526;SDS011;68974;47.754;-3.364;2023-11-19T08:56:58;18.27;;;4.07;;
79526;SDS011;68974;47.754;-3.364;2023-11-19T08:59:24;22.25;;;4.03;;
79526;SDS011;68974;47.754;-3.364;2023-11-19T09:01:49;30.60;;;3.47;;
79526;SDS011;68974;47.754;-3.364;2023-11-19T09:04:15;32.35;;;5.57;;
79526;SDS011;68974;47.754;-3.364;2023-11-19T09:06:41;30.70;;;4.80;;
79526;SDS011;68974;47.754;-3.364;2023-11-19T09:09:07;28.98;;;5.43;;
79526;SDS011;68974;47.754;-3.364;2023-11-19T09:11:33;23.50;;;6.18;;
79526;SDS011;68974;47.754;-3.364;2023-11-19T09:13:58;22.67;;;5.15;;
79526;SDS011;68974;47.754;-3.364;2023-11-19T09:16:24;24.98;;;3.53;;
79526;SDS011;68974;47.754;-3.364;2023-11-19T09:18:50;24.88;;;4.25;;
79526;SDS011;68974;47.754;-3.364;2023-11-19T09:21:15;28.75;;;4.88;;
79526;SDS011;68974;47.754;-3.364;2023-11-19T09:23:40;25.45;;;5.88;;
79526;SDS011;68974;47.754;-3.364;2023-11-19T09:26:06;19.23;;;3.80;;
79526;SDS011;68974;47.754;-3.364;2023-11-19T09:28:33;21.67;;;3.58;;
79526;SDS011;68974;47.754;-3.364;2023-11-19T09:30:59;27.27;;;4.65;;
79526;SDS011;68974;47.754;-3.364;2023-11-19T09:33:24;23.80;;;2.97;;
79526;SDS011;68974;47.754;-3.364;2023-11-19T09:35:50;25.70;;;3.65;;
79526;SDS011;68974;47.754;-3.364;2023-11-19T09:38:16;20.35;;;3.75;;
79526;SDS011;68974;47.754;-3.364;2023-11-19T09:40:42;17.50;;;4.00;;
79526;SDS011;68974;47.754;-3.364;2023-11-19T09:43:07;19.08;;;4.03;;
79526;SDS011;68974;47.754;-3.364;2023-11-19T09:45:37;26.52;;;4.55;;
79526;SDS011;68974;47.754;-3.364;2023-11-19T09:48:16;25.52;;;3.67;;
79526;SDS011;68974;47.754;-3.364;2023-11-19T09:50:42;17.90;;;3.53;;
79526;SDS011;68974;47.754;-3.364;2023-11-19T09:53:09;29.80;;;4.00;;
79526;SDS011;68974;47.754;-3.364;2023-11-19T09:55:34;33.80;;;4.53;;
79526;SDS011;68974;47.754;-3.364;2023-11-19T09:58:00;26.13;;;4.30;;
79526;SDS011;68974;47.754;-3.364;2023-11-19T10:00:26;28.90;;;4.22;;
79526;SDS011;68974;47.754;-3.364;2023-11-19T10:02:52;18.45;;;3.20;;
79526;SDS011;68974;47.754;-3.364;2023-11-19T10:05:20;23.13;;;3.15;;
79526;SDS011;68974;47.754;-3.364;2023-11-19T10:07:48;29.10;;;4.25;;
79526;SDS011;68974;47.754;-3.364;2023-11-19T10:10:14;24.10;;;3.85;;
79526;SDS011;68974;47.754;-3.364;2023-11-19T10:12:43;22.90;;;4.00;;
79526;SDS011;68974;47.754;-3.364;2023-11-19T10:15:11;25.08;;;5.20;;
79526;SDS011;68974;47.754;-3.364;2023-11-19T10:17:45;18.33;;;3.33;;
79526;SDS011;68974;47.754;-3.364;2023-11-19T10:20:10;22.83;;;4.05;;
79526;SDS011;68974;47.754;-3.364;2023-11-19T10:22:38;28.48;;;5.18;;
79526;SDS011;68974;47.754;-3.364;2023-11-19T10:25:05;17.63;;;4.35;;
79526;SDS011;68974;47.754;-3.364;2023-11-19T10:27:46;24.75;;;5.32;;
79526;SDS011;68974;47.754;-3.364;2023-11-19T10:30:11;23.70;;;5.13;;
79526;SDS011;68974;47.754;-3.364;2023-11-19T10:32:37;28.80;;;4.75;;
79526;SDS011;68974;47.754;-3.364;2023-11-19T10:35:05;30.93;;;4.90;;
79526;SDS011;68974;47.754;-3.364;2023-11-19T10:37:31;14.05;;;3.80;;
79526;SDS011;68974;47.754;-3.364;2023-11-19T10:39:57;23.98;;;4.97;;
79526;SDS011;68974;47.754;-3.364;2023-11-19T10:42:23;22.67;;;3.67;;
79526;SDS011;68974;47.754;-3.364;2023-11-19T10:44:48;29.45;;;4.90;;
79526;SDS011;68974;47.754;-3.364;2023-11-19T10:47:14;25.83;;;4.05;;
79526;SDS011;68974;47.754;-3.364;2023-11-19T10:49:40;22.98;;;4.40;;
79526;SDS011;68974;47.754;-3.364;2023-11-19T10:52:06;17.80;;;4.07;;
79526;SDS011;68974;47.754;-3.364;2023-11-19T10:54:34;17.10;;;5.38;;
79526;SDS011;68974;47.754;-3.364;2023-11-19T10:57:00;21.77;;;3.53;;
79526;SDS011;68974;47.754;-3.364;2023-11-19T10:59:28;15.27;;;3.75;;
79526;SDS011;68974;47.754;-3.364;2023-11-19T11:01:57;25.02;;;4.00;;
79526;SDS011;68974;47.754;-3.364;2023-11-19T11:04:25;17.58;;;3.90;;
79526;SDS011;68974;47.754;-3.364;2023-11-19T11:06:54;18.02;;;3.55;;
79526;SDS011;68974;47.754;-3.364;2023-11-19T11:09:20;17.15;;;3.85;;
79526;SDS011;68974;47.754;-3.364;2023-11-19T11:11:46;14.25;;;3.60;;
79526;SDS011;68974;47.754;-3.364;2023-11-19T11:14:13;20.75;;;4.00;;
79526;SDS011;68974;47.754;-3.364;2023-11-19T11:16:42;18.52;;;3.67;;
79526;SDS011;68974;47.754;-3.364;2023-11-19T11:19:09;19.27;;;4.25;;
79526;SDS011;68974;47.754;-3.364;2023-11-19T11:29:24;19.67;;;3.83;;
79526;SDS011;68974;47.754;-3.364;2023-11-19T11:34:57;19.58;;;3.63;;
79526;SDS011;68974;47.754;-3.364;2023-11-19T11:40:16;23.30;;;4.05;;
79526;SDS011;68974;47.754;-3.364;2023-11-19T11:42:43;20.77;;;4.03;;
79526;SDS011;68974;47.754;-3.364;2023-11-19T11:45:10;15.90;;;3.72;;
79526;SDS011;68974;47.754;-3.364;2023-11-19T11:50:11;22.27;;;4.25;;
79526;SDS011;68974;47.754;-3.364;2023-11-19T11:53:39;22.77;;;4.40;;
79526;SDS011;68974;47.754;-3.364;2023-11-19T11:58:19;21.00;;;3.78;;
79526;SDS011;68974;47.754;-3.364;2023-11-19T12:00:51;22.42;;;4.07;;
79526;SDS011;68974;47.754;-3.364;2023-11-19T12:03:19;25.48;;;4.15;;
79526;SDS011;68974;47.754;-3.364;2023-11-19T12:05:47;22.75;;;4.38;;
79526;SDS011;68974;47.754;-3.364;2023-11-19T12:08:13;14.55;;;3.22;;
79526;SDS011;68974;47.754;-3.364;2023-11-19T12:10:49;21.27;;;4.05;;
79526;SDS011;68974;47.754;-3.364;2023-11-19T12:13:19;21.83;;;4.78;;
79526;SDS011;68974;47.754;-3.364;2023-11-19T12:18:30;23.08;;;4.22;;
79526;SDS011;68974;47.754;-3.364;2023-11-19T12:20:57;15.75;;;3.83;;
79526;SDS011;68974;47.754;-3.364;2023-11-19T12:23:26;18.77;;;4.20;;
79526;SDS011;68974;47.754;-3.364;2023-11-19T12:25:54;19.25;;;4.53;;
79526;SDS011;68974;47.754;-3.364;2023-11-19T12:28:20;19.42;;;3.78;;
79526;SDS011;68974;47.754;-3.364;2023-11-19T12:30:45;16.95;;;3.08;;
79526;SDS011;68974;47.754;-3.364;2023-11-19T12:33:13;18.45;;;3.83;;
79526;SDS011;68974;47.754;-3.364;2023-11-19T12:35:43;16.33;;;4.05;;
79526;SDS011;68974;47.754;-3.364;2023-11-19T12:38:22;16.90;;;3.42;;
79526;SDS011;68974;47.754;-3.364;2023-11-19T12:41:07;19.20;;;3.70;;
79526;SDS011;68974;47.754;-3.364;2023-11-19T12:43:36;26.17;;;4.22;;
79526;SDS011;68974;47.754;-3.364;2023-11-19T12:46:20;23.67;;;3.67;;
79526;SDS011;68974;47.754;-3.364;2023-11-19T12:48:47;19.48;;;3.20;;
79526;SDS011;68974;47.754;-3.364;2023-11-19T12:51:13;25.48;;;4.32;;
79526;SDS011;68974;47.754;-3.364;2023-11-19T12:56:19;25.23;;;3.83;;
79526;SDS011;68974;47.754;-3.364;2023-11-19T12:58:48;20.52;;;3.33;;
79526;SDS011;68974;47.754;-3.364;2023-11-19T13:01:18;23.48;;;4.65;;
79526;SDS011;68974;47.754;-3.364;2023-11-19T13:03:44;24.30;;;3.83;;
79526;SDS011;68974;47.754;-3.364;2023-11-19T13:06:11;24.60;;;3.47;;
79526;SDS011;68974;47.754;-3.364;2023-11-19T13:08:45;24.20;;;3.50;;
79526;SDS011;68974;47.754;-3.364;2023-11-19T13:11:13;34.97;;;4.28;;
79526;SDS011;68974;47.754;-3.364;2023-11-19T13:16:20;19.25;;;3.58;;
79526;SDS011;68974;47.754;-3.364;2023-11-19T13:18:45;29.13;;;4.17;;
79526;SDS011;68974;47.754;-3.364;2023-11-19T13:21:10;29.53;;;6.87;;
79526;SDS011;68974;47.754;-3.364;2023-11-19T13:23:36;22.02;;;4.38;;
79526;SDS011;68974;47.754;-3.364;2023-11-19T13:26:02;19.52;;;4.13;;
79526;SDS011;68974;47.754;-3.364;2023-11-19T13:28:28;25.42;;;4.93;;
79526;SDS011;68974;47.754;-3.364;2023-11-19T13:30:54;19.95;;;3.58;;
79526;SDS011;68974;47.754;-3.364;2023-11-19T13:33:19;29.35;;;4.63;;
79526;SDS011;68974;47.754;-3.364;2023-11-19T13:35:48;27.77;;;3.95;;
79526;SDS011;68974;47.754;-3.364;2023-11-19T13:38:13;22.73;;;3.33;;
79526;SDS011;68974;47.754;-3.364;2023-11-19T13:40:39;19.33;;;4.00;;
79526;SDS011;68974;47.754;-3.364;2023-11-19T13:43:04;22.40;;;3.13;;
79526;SDS011;68974;47.754;-3.364;2023-11-19T13:45:30;22.08;;;3.72;;
79526;SDS011;68974;47.754;-3.364;2023-11-19T13:47:55;20.40;;;3.35;;
79526;SDS011;68974;47.754;-3.364;2023-11-19T13:50:21;20.25;;;3.15;;
79526;SDS011;68974;47.754;-3.364;2023-11-19T13:52:47;17.30;;;3.28;;
79526;SDS011;68974;47.754;-3.364;2023-11-19T13:55:13;23.58;;;4.20;;
79526;SDS011;68974;47.754;-3.364;2023-11-19T13:57:39;23.55;;;3.80;;
79526;SDS011;68974;47.754;-3.364;2023-11-19T14:00:06;24.00;;;4.70;;
79526;SDS011;68974;47.754;-3.364;2023-11-19T14:02:38;17.88;;;4.13;;
79526;SDS011;68974;47.754;-3.364;2023-11-19T14:05:07;21.65;;;2.83;;
79526;SDS011;68974;47.754;-3.364;2023-11-19T14:07:33;22.23;;;4.35;;
79526;SDS011;68974;47.754;-3.364;2023-11-19T14:09:58;30.17;;;5.57;;
79526;SDS011;68974;47.754;-3.364;2023-11-19T14:12:24;21.25;;;2.92;;
79526;SDS011;68974;47.754;-3.364;2023-11-19T14:14:49;20.60;;;3.30;;
79526;SDS011;68974;47.754;-3.364;2023-11-19T14:17:15;22.35;;;3.97;;
79526;SDS011;68974;47.754;-3.364;2023-11-19T14:19:41;26.05;;;4.18;;
79526;SDS011;68974;47.754;-3.364;2023-11-19T14:22:07;17.15;;;3.67;;
79526;SDS011;68974;47.754;-3.364;2023-11-19T14:24:33;18.98;;;3.53;;
79526;SDS011;68974;47.754;-3.364;2023-11-19T14:26:59;19.60;;;3.25;;
79526;SDS011;68974;47.754;-3.364;2023-11-19T14:29:25;23.85;;;3.78;;
79526;SDS011;68974;47.754;-3.364;2023-11-19T14:31:51;17.40;;;3.00;;
79526;SDS011;68974;47.754;-3.364;2023-11-19T14:34:17;18.90;;;3.03;;
79526;SDS011;68974;47.754;-3.364;2023-11-19T14:36:44;23.63;;;3.55;;
79526;SDS011;68974;47.754;-3.364;2023-11-19T14:39:10;18.90;;;3.53;;
79526;SDS011;68974;47.754;-3.364;2023-11-19T14:41:35;22.35;;;4.35;;
79526;SDS011;68974;47.754;-3.364;2023-11-19T14:44:00;22.02;;;3.55;;
79526;SDS011;68974;47.754;-3.364;2023-11-19T14:46:26;23.17;;;4.72;;
79526;SDS011;68974;47.754;-3.364;2023-11-19T14:48:52;15.68;;;3.17;;